createdAt,value
2023-01-29T00:01:48.095Z,96089.88
2023-01-29T00:04:14.642Z,96084.25
2023-01-29T00:06:41.181Z,96083.22
2023-01-29T00:09:07.784Z,96090.69
2023-01-29T00:11:35.361Z,96079.78
2023-01-29T00:14:02.010Z,96079.38
2023-01-29T00:16:28.597Z,96085.72
2023-01-29T00:18:55.128Z,96078.41
2023-01-29T00:21:22.717Z,96088.31
2023-01-29T00:23:50.391Z,96086.84
2023-01-29T00:26:17.183Z,96094.97
2023-01-29T00:28:47.181Z,96092.25
2023-01-29T00:31:22.589Z,96100.56
2023-01-29T00:33:50.000Z,96097.56
2023-01-29T00:36:19.133Z,96105.97
2023-01-29T00:38:54.352Z,96097.16
2023-01-29T00:41:40.908Z,96099.13
2023-01-29T00:44:26.234Z,96101.72
2023-01-29T00:46:52.874Z,96099.84
2023-01-29T00:49:19.496Z,96098.41
2023-01-29T00:52:06.016Z,96104.41
2023-01-29T00:54:33.261Z,96099.66
2023-01-29T00:57:00.888Z,96097.75
2023-01-29T00:59:27.482Z,96097.88
2023-01-29T01:02:12.645Z,96099.97
2023-01-29T01:04:39.218Z,96100.56
2023-01-29T01:07:06.549Z,96105.34
2023-01-29T01:09:54.623Z,96100.03
2023-01-29T01:12:21.667Z,96097.75
2023-01-29T01:14:48.269Z,96093.72
2023-01-29T01:17:15.543Z,96106.91
2023-01-29T01:19:42.305Z,96105.25
2023-01-29T01:22:08.896Z,96104.13
2023-01-29T01:24:35.727Z,96109.00
2023-01-29T01:27:02.247Z,96110.97
2023-01-29T01:29:28.804Z,96112.53
2023-01-29T01:31:55.392Z,96109.41
2023-01-29T01:34:23.857Z,96113.03
2023-01-29T01:36:50.425Z,96113.16
2023-01-29T01:39:17.027Z,96113.25
2023-01-29T01:41:43.555Z,96120.72
2023-01-29T01:44:48.066Z,96123.31
2023-01-29T01:47:15.959Z,96114.09
2023-01-29T01:49:43.901Z,96107.72
2023-01-29T01:52:13.547Z,96112.41
2023-01-29T01:54:40.222Z,96101.53
2023-01-29T01:57:16.096Z,96113.25
2023-01-29T01:59:48.617Z,96112.13
2023-01-29T02:02:35.932Z,96108.69
2023-01-29T02:05:21.386Z,96113.25
2023-01-29T02:08:08.986Z,96119.41
2023-01-29T02:10:41.687Z,96116.09
2023-01-29T02:13:09.320Z,96118.88
2023-01-29T02:15:35.856Z,96115.03
2023-01-29T02:18:02.471Z,96111.91
2023-01-29T02:20:34.749Z,96123.75
2023-01-29T02:23:40.053Z,96127.09
2023-01-29T02:26:20.208Z,96126.16
2023-01-29T02:28:58.671Z,96121.47
2023-01-29T02:31:40.004Z,96120.84
2023-01-29T02:34:06.534Z,96120.84
2023-01-29T02:36:39.004Z,96114.41
2023-01-29T02:39:41.912Z,96112.22
2023-01-29T02:42:27.781Z,96112.13
2023-01-29T02:45:06.135Z,96103.59
2023-01-29T02:47:35.571Z,96108.16
2023-01-29T02:50:19.534Z,96101.94
2023-01-29T02:53:02.080Z,96092.16
2023-01-29T02:55:45.414Z,96092.56
2023-01-29T02:58:26.303Z,96093.22
2023-01-29T03:00:56.344Z,96089.84
2023-01-29T03:03:32.320Z,96088.31
2023-01-29T03:06:07.504Z,96096.00
2023-01-29T03:09:00.824Z,96086.13
2023-01-29T03:11:33.419Z,96086.22
2023-01-29T03:14:08.798Z,96093.72
2023-01-29T03:16:50.752Z,96093.72
2023-01-29T03:19:29.465Z,96094.00
2023-01-29T03:22:01.548Z,96095.38
2023-01-29T03:24:51.925Z,96091.31
2023-01-29T03:27:45.470Z,96100.69
2023-01-29T03:30:34.363Z,96105.56
2023-01-29T03:33:29.447Z,96098.94
2023-01-29T03:36:02.492Z,96108.69
2023-01-29T03:38:32.096Z,96107.44
2023-01-29T03:41:14.170Z,96112.63
2023-01-29T03:43:56.130Z,96105.56
2023-01-29T03:46:48.949Z,96105.88
2023-01-29T03:49:39.842Z,96102.03
2023-01-29T03:52:37.297Z,96099.75
2023-01-29T03:55:13.106Z,96088.91
2023-01-29T03:57:49.358Z,96089.78
2023-01-29T04:00:21.157Z,96086.00
2023-01-29T04:03:21.820Z,96077.69
2023-01-29T04:05:58.579Z,96068.56
2023-01-29T04:08:34.593Z,96072.59
2023-01-29T04:11:10.305Z,96061.28
2023-01-29T04:13:38.055Z,96060.84
2023-01-29T04:16:08.287Z,96063.66
2023-01-29T04:18:51.820Z,96065.22
2023-01-29T04:21:25.778Z,96063.56
2023-01-29T04:23:52.363Z,96070.13
2023-01-29T04:26:28.093Z,96070.63
2023-01-29T04:29:16.582Z,96071.66
2023-01-29T04:32:02.541Z,96063.56
2023-01-29T04:34:44.905Z,96069.06
2023-01-29T04:37:29.567Z,96070.22
2023-01-29T04:40:10.726Z,96067.84
2023-01-29T04:42:41.720Z,96069.81
2023-01-29T04:45:25.898Z,96079.69
2023-01-29T04:48:11.213Z,96076.34
2023-01-29T04:50:47.044Z,96083.41
2023-01-29T04:53:23.777Z,96080.31
2023-01-29T04:55:58.306Z,96077.72
2023-01-29T04:58:45.098Z,96072.31
2023-01-29T05:01:16.483Z,96066.25
2023-01-29T05:03:47.640Z,96062.75
2023-01-29T05:06:15.819Z,96068.03
2023-01-29T05:08:42.410Z,96063.47
2023-01-29T05:11:10.017Z,96076.88
2023-01-29T05:13:39.743Z,96080.09
2023-01-29T05:16:20.024Z,96085.50
2023-01-29T05:18:47.118Z,96080.41
2023-01-29T05:21:13.826Z,96082.91
2023-01-29T05:23:52.961Z,96087.66
2023-01-29T05:26:39.649Z,96085.19
2023-01-29T05:29:06.193Z,96091.34
2023-01-29T05:31:32.893Z,96098.81
2023-01-29T05:33:59.432Z,96098.94
2023-01-29T05:36:27.154Z,96109.41
2023-01-29T05:38:53.721Z,96110.75
2023-01-29T05:41:21.024Z,96110.25
2023-01-29T05:43:47.602Z,96115.84
2023-01-29T05:46:14.247Z,96121.88
2023-01-29T05:48:40.844Z,96118.56
2023-01-29T05:51:07.381Z,96114.06
2023-01-29T05:53:33.935Z,96119.91
2023-01-29T05:56:05.189Z,96119.91
2023-01-29T05:58:32.339Z,96122.13
2023-01-29T06:01:07.298Z,96118.16
2023-01-29T06:03:33.814Z,96109.13
2023-01-29T06:06:02.023Z,96112.53
2023-01-29T06:08:28.536Z,96106.09
2023-01-29T06:10:55.079Z,96116.91
2023-01-29T06:13:23.640Z,96110.75
2023-01-29T06:15:50.463Z,96108.47
2023-01-29T06:18:17.019Z,96106.06
2023-01-29T06:20:43.749Z,96106.19
2023-01-29T06:23:10.326Z,96104.63
2023-01-29T06:25:36.896Z,96094.84
2023-01-29T06:28:03.584Z,96109.63
2023-01-29T06:30:31.671Z,96110.56
2023-01-29T06:32:59.069Z,96115.44
2023-01-29T06:35:26.034Z,96110.03
2023-01-29T06:37:52.595Z,96111.81
2023-01-29T06:40:19.341Z,96117.31
2023-01-29T06:42:46.253Z,96115.44
2023-01-29T06:45:14.003Z,96121.25
2023-01-29T06:47:40.539Z,96121.75
2023-01-29T06:50:07.276Z,96122.81
2023-01-29T06:52:33.821Z,96121.75
2023-01-29T06:55:00.380Z,96127.91
2023-01-29T06:57:29.979Z,96116.47
2023-01-29T06:59:56.528Z,96119.59
2023-01-29T07:02:23.103Z,96128.13
2023-01-29T07:04:49.674Z,96116.91
2023-01-29T07:07:16.236Z,96113.38
2023-01-29T07:09:43.307Z,96118.25
2023-01-29T07:12:10.934Z,96112.72
2023-01-29T07:14:37.508Z,96115.13
2023-01-29T07:17:04.088Z,96107.13
2023-01-29T07:19:30.630Z,96115.03
2023-01-29T07:21:57.140Z,96106.72
2023-01-29T07:24:24.377Z,96102.13
2023-01-29T07:26:50.948Z,96094.03
2023-01-29T07:29:17.471Z,96090.69
2023-01-29T07:31:44.041Z,96099.84
2023-01-29T07:34:10.607Z,96100.47
2023-01-29T07:36:37.206Z,96091.63
2023-01-29T07:39:03.748Z,96087.59
2023-01-29T07:41:30.279Z,96089.78
2023-01-29T07:43:59.492Z,96090.59
2023-01-29T07:46:26.037Z,96086.66
2023-01-29T07:48:52.560Z,96083.63
2023-01-29T07:51:21.264Z,96086.63
2023-01-29T07:53:47.878Z,96078.22
2023-01-29T07:56:14.523Z,96075.59
2023-01-29T07:58:41.054Z,96090.34
2023-01-29T08:01:07.881Z,96090.38
2023-01-29T08:03:34.925Z,96084.34
2023-01-29T08:06:02.560Z,96076.97
2023-01-29T08:08:29.117Z,96085.28
2023-01-29T08:10:55.648Z,96080.78
2023-01-29T08:13:22.256Z,96070.78
2023-01-29T08:15:48.780Z,96079.00
2023-01-29T08:18:15.647Z,96083.06
2023-01-29T08:20:42.212Z,96077.22
2023-01-29T08:23:13.541Z,96073.34
2023-01-29T08:25:40.512Z,96078.50
2023-01-29T08:28:07.227Z,96080.16
2023-01-29T08:30:34.650Z,96090.91
2023-01-29T08:33:02.841Z,96094.41
2023-01-29T08:35:29.456Z,96093.47
2023-01-29T08:37:59.220Z,96087.25
2023-01-29T08:40:31.741Z,96098.19
2023-01-29T08:43:03.530Z,96106.03
2023-01-29T08:45:34.023Z,96104.47
2023-01-29T08:48:00.674Z,96103.69
2023-01-29T08:50:27.653Z,96124.38
2023-01-29T08:52:59.077Z,96118.03
2023-01-29T08:55:26.357Z,96123.88
2023-01-29T08:57:53.212Z,96120.41
2023-01-29T09:00:20.344Z,96126.38
2023-01-29T09:02:47.155Z,96127.56
2023-01-29T09:05:13.799Z,96129.00
2023-01-29T09:07:40.349Z,96125.25
2023-01-29T09:10:09.000Z,96127.13
2023-01-29T09:12:35.539Z,96132.09
2023-01-29T09:15:02.060Z,96138.69
2023-01-29T09:17:28.575Z,96142.34
2023-01-29T09:19:55.093Z,96145.28
2023-01-29T09:22:21.688Z,96155.16
2023-01-29T09:24:48.258Z,96152.25
2023-01-29T09:27:14.884Z,96156.41
2023-01-29T09:29:41.575Z,96150.91
2023-01-29T09:32:08.115Z,96154.78
2023-01-29T09:34:35.165Z,96166.75
2023-01-29T09:37:01.742Z,96168.28
2023-01-29T09:39:28.507Z,96166.59
2023-01-29T09:42:10.125Z,96162.44
2023-01-29T09:44:54.876Z,96169.06
2023-01-29T09:47:25.460Z,96174.56
2023-01-29T09:49:57.637Z,96178.28
2023-01-29T09:52:30.020Z,96182.09
2023-01-29T09:55:02.545Z,96182.38
2023-01-29T09:57:39.134Z,96177.56
2023-01-29T10:00:06.389Z,96172.53
2023-01-29T10:02:50.519Z,96166.63
2023-01-29T10:05:21.735Z,96168.28
2023-01-29T10:08:04.354Z,96157.75
2023-01-29T10:10:33.604Z,96156.53
2023-01-29T10:13:11.812Z,96163.81
2023-01-29T10:16:04.363Z,96156.75
2023-01-29T10:19:21.145Z,96156.25
2023-01-29T10:22:18.900Z,96152.53
2023-01-29T10:24:57.550Z,96149.56
2023-01-29T10:27:32.085Z,96160.88
2023-01-29T10:30:01.317Z,96146.13
2023-01-29T10:32:29.834Z,96152.97
2023-01-29T10:35:01.675Z,96143.47
2023-01-29T10:37:42.598Z,96150.56
2023-01-29T10:40:23.134Z,96142.84
2023-01-29T10:43:09.461Z,96144.72
2023-01-29T10:46:00.195Z,96140.06
2023-01-29T10:48:59.116Z,96146.06
2023-01-29T10:52:00.107Z,96150.25
2023-01-29T10:55:00.308Z,96148.81
2023-01-29T10:57:49.784Z,96142.03
2023-01-29T11:00:22.360Z,96150.06
2023-01-29T11:02:51.366Z,96141.25
2023-01-29T11:05:21.162Z,96142.88
2023-01-29T11:07:49.446Z,96131.00
2023-01-29T11:10:20.623Z,96130.31
2023-01-29T11:12:47.134Z,96129.03
2023-01-29T11:15:23.179Z,96124.22
2023-01-29T11:18:07.242Z,96123.31
2023-01-29T11:20:34.140Z,96121.44
2023-01-29T11:23:00.752Z,96121.44
2023-01-29T11:25:29.931Z,96119.53
2023-01-29T11:27:58.231Z,96125.81
2023-01-29T11:30:41.503Z,96114.88
2023-01-29T11:33:23.796Z,96102.91
2023-01-29T11:35:52.470Z,96106.75
2023-01-29T11:38:23.588Z,96109.59
2023-01-29T11:40:50.217Z,96104.50
2023-01-29T11:43:32.490Z,96102.66
2023-01-29T11:46:03.461Z,96105.72
2023-01-29T11:48:41.846Z,96100.00
2023-01-29T11:51:12.442Z,96102.44
2023-01-29T11:53:42.942Z,96091.56
2023-01-29T11:56:18.626Z,96078.50
2023-01-29T11:58:46.594Z,96057.56
2023-01-29T12:01:16.227Z,96046.25
2023-01-29T12:03:52.994Z,96029.72
2023-01-29T12:06:35.594Z,96024.38
2023-01-29T12:09:09.141Z,96016.63
2023-01-29T12:11:36.194Z,96022.00
2023-01-29T12:14:23.765Z,96015.81
2023-01-29T12:17:19.778Z,96008.69
2023-01-29T12:19:58.777Z,96015.91
2023-01-29T12:22:42.986Z,96010.84
2023-01-29T12:25:31.173Z,96024.00
2023-01-29T12:28:09.485Z,96025.06
2023-01-29T12:31:05.813Z,96028.75
2023-01-29T12:33:41.659Z,96025.59
2023-01-29T12:36:21.566Z,96039.84
2023-01-29T12:38:48.098Z,96044.38
2023-01-29T12:41:30.075Z,96040.72
2023-01-29T12:44:03.138Z,96031.78
2023-01-29T12:46:37.876Z,96030.44
2023-01-29T12:49:13.832Z,96026.66
2023-01-29T12:51:59.269Z,96020.25
2023-01-29T12:54:34.848Z,96012.22
2023-01-29T12:57:04.443Z,96012.22
2023-01-29T12:59:43.104Z,96015.09
2023-01-29T13:02:18.624Z,96006.00
2023-01-29T13:05:03.884Z,96001.69
2023-01-29T13:07:41.058Z,95991.41
2023-01-29T13:10:14.966Z,95980.88
2023-01-29T13:12:53.233Z,95983.09
2023-01-29T13:15:30.789Z,95975.41
2023-01-29T13:18:22.723Z,95972.91
2023-01-29T13:20:50.558Z,95967.53
2023-01-29T13:23:21.513Z,95954.81
2023-01-29T13:25:57.483Z,95965.81
2023-01-29T13:28:26.567Z,95961.06
2023-01-29T13:31:12.041Z,95957.66
2023-01-29T13:33:40.598Z,95954.25
2023-01-29T13:36:15.614Z,95949.31
2023-01-29T13:38:44.930Z,95959.50
2023-01-29T13:41:12.147Z,95957.00
2023-01-29T13:43:41.549Z,95954.28
2023-01-29T13:46:17.537Z,95957.06
2023-01-29T13:48:47.074Z,95953.34
2023-01-29T13:51:20.378Z,95949.13
2023-01-29T13:54:00.021Z,95941.31
2023-01-29T13:56:33.944Z,95948.59
2023-01-29T13:59:02.438Z,95947.97
2023-01-29T14:01:47.286Z,95941.06
2023-01-29T14:04:21.596Z,95945.03
2023-01-29T14:06:53.551Z,95947.16
2023-01-29T14:09:39.366Z,95940.16
2023-01-29T14:12:21.116Z,95922.28
2023-01-29T14:14:47.576Z,95916.16
2023-01-29T14:17:18.783Z,95915.38
2023-01-29T14:19:57.403Z,95922.31
2023-01-29T14:22:27.621Z,95921.13
2023-01-29T14:24:58.339Z,95922.97
2023-01-29T14:27:25.753Z,95915.13
2023-01-29T14:30:00.176Z,95916.91
2023-01-29T14:32:27.045Z,95925.75
2023-01-29T14:35:10.426Z,95927.47
2023-01-29T14:37:40.644Z,95926.16
2023-01-29T14:40:19.301Z,95929.25
2023-01-29T14:43:05.481Z,95932.28
2023-01-29T14:45:37.024Z,95941.28
2023-01-29T14:48:09.518Z,95951.22
2023-01-29T14:50:39.428Z,95957.72
2023-01-29T14:53:19.631Z,95955.75
2023-01-29T14:55:58.122Z,95957.91
2023-01-29T14:58:33.332Z,95956.09
2023-01-29T15:01:02.483Z,95951.78
2023-01-29T15:04:04.621Z,95940.88
2023-01-29T15:06:43.252Z,95942.09
2023-01-29T15:09:36.409Z,95936.13
2023-01-29T15:12:18.675Z,95938.34
2023-01-29T15:14:59.817Z,95940.00
2023-01-29T15:17:32.596Z,95934.16
2023-01-29T15:19:59.222Z,95938.53
2023-01-29T15:22:26.160Z,95932.31
2023-01-29T15:25:22.346Z,95937.22
2023-01-29T15:27:50.127Z,95937.75
2023-01-29T15:30:31.810Z,95948.28
2023-01-29T15:32:59.108Z,95951.25
2023-01-29T15:35:34.312Z,95949.66
2023-01-29T15:38:18.470Z,95942.72
2023-01-29T15:40:58.951Z,95948.72
2023-01-29T15:43:27.284Z,95947.22
2023-01-29T15:46:06.632Z,95945.28
2023-01-29T15:48:38.054Z,95948.13
2023-01-29T15:51:10.281Z,95951.31
2023-01-29T15:53:44.211Z,95955.69
2023-01-29T15:56:12.935Z,95958.59
2023-01-29T15:58:40.490Z,95947.28
2023-01-29T16:01:07.262Z,95958.22
2023-01-29T16:03:36.001Z,95964.13
2023-01-29T16:06:03.185Z,95960.59
2023-01-29T16:08:30.103Z,95959.78
2023-01-29T16:11:00.590Z,95948.94
2023-01-29T16:13:33.610Z,95958.22
2023-01-29T16:16:02.949Z,95957.28
2023-01-29T16:18:35.338Z,95958.72
2023-01-29T16:21:08.727Z,95960.91
2023-01-29T16:23:40.345Z,95959.66
2023-01-29T16:26:09.339Z,95969.22
2023-01-29T16:28:43.706Z,95970.78
2023-01-29T16:31:11.905Z,95970.34
2023-01-29T16:33:42.876Z,95968.00
2023-01-29T16:36:17.399Z,95975.47
2023-01-29T16:38:49.710Z,95972.88
2023-01-29T16:41:22.345Z,95977.53
2023-01-29T16:44:02.386Z,95979.31
2023-01-29T16:46:48.771Z,95977.94
2023-01-29T16:49:30.766Z,95987.53
2023-01-29T16:52:16.999Z,95991.75
2023-01-29T16:54:43.592Z,95995.91
2023-01-29T16:57:21.671Z,95993.41
2023-01-29T16:59:49.610Z,96000.59
2023-01-29T17:02:27.453Z,96001.00
2023-01-29T17:04:58.631Z,95997.78
2023-01-29T17:07:25.686Z,96003.50
2023-01-29T17:09:59.780Z,95994.75
2023-01-29T17:12:28.359Z,96001.00
2023-01-29T17:15:05.177Z,95999.88
2023-01-29T17:17:34.202Z,96007.66
2023-01-29T17:20:15.449Z,96011.38
2023-01-29T17:22:42.378Z,96006.56
2023-01-29T17:25:15.940Z,96014.06
2023-01-29T17:27:44.187Z,96010.66
2023-01-29T17:30:22.348Z,96012.38
2023-01-29T17:32:49.250Z,96015.53
2023-01-29T17:35:17.743Z,96009.59
2023-01-29T17:37:44.801Z,96003.38
2023-01-29T17:40:37.648Z,96005.91
2023-01-29T17:43:04.263Z,96012.88
2023-01-29T17:45:30.864Z,96011.22
2023-01-29T17:47:57.433Z,96003.06
2023-01-29T17:50:27.076Z,96011.78
2023-01-29T17:52:53.929Z,96011.66
2023-01-29T17:55:21.142Z,96011.72
2023-01-29T17:57:47.815Z,96017.63
2023-01-29T18:00:21.569Z,96017.78
2023-01-29T18:02:47.943Z,96013.47
2023-01-29T18:05:16.292Z,96014.88
2023-01-29T18:07:46.477Z,96009.00
2023-01-29T18:10:17.505Z,96007.47
2023-01-29T18:12:45.273Z,96004.78
2023-01-29T18:15:12.534Z,95997.56
2023-01-29T18:17:39.757Z,96000.47
2023-01-29T18:20:18.279Z,96000.69
2023-01-29T18:22:45.177Z,95990.44
2023-01-29T18:25:12.224Z,95993.38
2023-01-29T18:27:38.818Z,95990.59
2023-01-29T18:30:05.933Z,95989.25
2023-01-29T18:32:32.479Z,95993.50
2023-01-29T18:34:59.151Z,95990.47
2023-01-29T18:37:25.891Z,95985.22
2023-01-29T18:39:53.927Z,95983.84
2023-01-29T18:42:20.430Z,95984.72
2023-01-29T18:44:46.990Z,95980.97
2023-01-29T18:47:13.496Z,95983.91
2023-01-29T18:49:40.573Z,95992.19
2023-01-29T18:52:07.454Z,95995.47
2023-01-29T18:54:34.187Z,95994.78
2023-01-29T18:57:11.498Z,95999.59
2023-01-29T18:59:40.985Z,96000.72
2023-01-29T19:02:07.906Z,96002.41
2023-01-29T19:04:34.428Z,95997.13
2023-01-29T19:07:00.957Z,96001.66
2023-01-29T19:09:27.492Z,96003.88
2023-01-29T19:11:54.582Z,96001.47
2023-01-29T19:14:21.184Z,95995.38
2023-01-29T19:16:47.788Z,95996.22
2023-01-29T19:19:14.356Z,96004.31
2023-01-29T19:21:40.917Z,95998.41
2023-01-29T19:24:09.967Z,96002.56
2023-01-29T19:26:36.566Z,95997.03
2023-01-29T19:29:03.745Z,95997.88
2023-01-29T19:31:31.853Z,95987.41
2023-01-29T19:33:58.726Z,95989.06
2023-01-29T19:36:25.361Z,95986.88
2023-01-29T19:38:51.883Z,95995.91
2023-01-29T19:41:18.487Z,95996.56
2023-01-29T19:43:46.255Z,95992.88
2023-01-29T19:46:12.894Z,95987.94
2023-01-29T19:48:39.410Z,95988.91
2023-01-29T19:51:10.533Z,95985.47
2023-01-29T19:53:38.596Z,95987.72
2023-01-29T19:56:08.232Z,95975.19
2023-01-29T19:58:35.723Z,95980.38
2023-01-29T20:01:13.229Z,95972.88
2023-01-29T20:03:41.817Z,95973.09
2023-01-29T20:06:09.266Z,95973.25
2023-01-29T20:08:35.961Z,95966.16
2023-01-29T20:11:03.056Z,95969.22
2023-01-29T20:13:29.651Z,95971.06
2023-01-29T20:15:56.239Z,95965.78
2023-01-29T20:18:22.944Z,95971.25
2023-01-29T20:20:52.898Z,95964.50
2023-01-29T20:23:31.865Z,95959.78
2023-01-29T20:26:04.187Z,95957.38
2023-01-29T20:28:30.715Z,95967.44
2023-01-29T20:30:58.833Z,95963.56
2023-01-29T20:33:26.401Z,95966.59
2023-01-29T20:35:57.464Z,95964.84
2023-01-29T20:38:25.556Z,95963.75
2023-01-29T20:40:52.139Z,95961.06
2023-01-29T20:43:18.654Z,95959.41
2023-01-29T20:45:45.287Z,95969.56
2023-01-29T20:48:11.974Z,95961.47
2023-01-29T20:50:38.501Z,95955.69
2023-01-29T20:53:05.195Z,95951.13
2023-01-29T20:55:31.990Z,95950.81
2023-01-29T20:58:05.997Z,95949.22
2023-01-29T21:00:33.562Z,95949.69
2023-01-29T21:03:00.167Z,95938.97
2023-01-29T21:05:26.721Z,95934.63
2023-01-29T21:07:53.274Z,95930.72
2023-01-29T21:10:20.131Z,95933.97
2023-01-29T21:12:46.795Z,95935.56
2023-01-29T21:15:13.330Z,95936.66
2023-01-29T21:17:39.948Z,95937.56
2023-01-29T21:20:08.272Z,95936.00
2023-01-29T21:22:34.801Z,95930.09
2023-01-29T21:25:01.393Z,95935.81
2023-01-29T21:27:27.956Z,95929.16
2023-01-29T21:29:54.512Z,95934.53
2023-01-29T21:32:21.437Z,95930.19
2023-01-29T21:34:47.952Z,95940.53
2023-01-29T21:37:14.503Z,95938.38
2023-01-29T21:39:41.010Z,95943.13
2023-01-29T21:42:26.215Z,95948.78
2023-01-29T21:44:52.731Z,95938.91
2023-01-29T21:47:19.468Z,95944.44
2023-01-29T21:49:46.143Z,95932.16
2023-01-29T21:52:13.660Z,95935.13
2023-01-29T21:54:40.594Z,95931.06
2023-01-29T21:57:12.244Z,95940.50
2023-01-29T21:59:38.843Z,95937.63
2023-01-29T22:02:05.544Z,95936.72
2023-01-29T22:04:32.130Z,95924.09
2023-01-29T22:06:58.707Z,95921.81
2023-01-29T22:09:25.354Z,95923.22
2023-01-29T22:11:51.912Z,95919.72
2023-01-29T22:14:18.442Z,95916.28
2023-01-29T22:16:45.649Z,95918.59
2023-01-29T22:19:13.561Z,95929.44
2023-01-29T22:21:40.182Z,95923.13
2023-01-29T22:24:07.400Z,95912.50
2023-01-29T22:26:34.292Z,95923.03
2023-01-29T22:29:00.938Z,95910.66
2023-01-29T22:31:27.467Z,95916.19
2023-01-29T22:33:54.138Z,95905.00
2023-01-29T22:36:20.719Z,95907.69
2023-01-29T22:38:47.232Z,95906.31
2023-01-29T22:41:13.808Z,95894.50
2023-01-29T22:43:41.066Z,95885.78
2023-01-29T22:46:08.867Z,95887.25
2023-01-29T22:48:35.899Z,95883.47
2023-01-29T22:51:11.792Z,95875.97
2023-01-29T22:53:44.010Z,95883.88
2023-01-29T22:56:11.784Z,95872.50
2023-01-29T22:58:38.371Z,95865.19
2023-01-29T23:01:05.243Z,95857.53
2023-01-29T23:03:31.818Z,95853.66
2023-01-29T23:05:58.573Z,95846.06
2023-01-29T23:08:25.309Z,95843.38
2023-01-29T23:10:52.071Z,95839.22
2023-01-29T23:13:18.831Z,95837.66
2023-01-29T23:15:45.429Z,95841.19
2023-01-29T23:18:12.218Z,95831.81
2023-01-29T23:20:38.744Z,95841.13
2023-01-29T23:23:05.416Z,95837.38
2023-01-29T23:25:57.980Z,95828.13
2023-01-29T23:28:24.498Z,95824.91
2023-01-29T23:30:51.977Z,95820.19
2023-01-29T23:33:18.965Z,95828.34
2023-01-29T23:35:45.495Z,95823.06
2023-01-29T23:38:12.097Z,95818.28
2023-01-29T23:40:38.657Z,95823.63
2023-01-29T23:43:05.170Z,95813.47
2023-01-29T23:45:31.694Z,95820.47
2023-01-29T23:47:58.241Z,95816.59
2023-01-29T23:50:24.796Z,95810.03
2023-01-29T23:52:51.311Z,95813.56
2023-01-29T23:55:18.000Z,95807.28
2023-01-29T23:57:44.544Z,95809.22
